W K Kellogg Airport
KBTL : now visible

Airfield :











YOU CAN JOIN US ON...

 
LOGIN :

Register | Disclaimer

   EN    FR    IT 

 









Legend :    VFR   Marginal VFR   IFR   Intensive IFR   Very Intensive IFR
Visi :
Ceiling :
>= 8 km
>= 3000ft
5 to 8 km
1000 to 3000 ft
1500m to 5 km
500 to 1000 ft
800 to 1500m
200 to 500 ft
< 800m
< 200 ft
Symbols :   Thunderstorms  Fog  Heavy snow  Heavy precipitations  Wind > 20 kt






- Airport Elevation : 952 ft


KBTL - W K Kellogg

CURRENT METAR :
  • 250653Z AUTO 23005KT 1/2SM R23/2600V3500FT FG VV002 02/02 A2977 RMK AO2 SLP090 T00170017

EXPIRED METARs :
  • 250644Z AUTO 21006KT 1/2SM R23/2000V3500FT FG VV002 02/02 A2978 RMK AO2 T00170017
  • 250623Z AUTO 21006KT 1/4SM R23/1800V2200FT FG VV002 02/02 A2978 RMK AO2 T00170017
  • 250553Z AUTO 19005KT 1/4SM R23/1800V2200FT FG VV002 02/02 A2978 RMK AO2 SLP093 60000 T00170017 10028 20017 52002
  • 250528Z AUTO 17003KT 1/4SM R23/2400V2600FT FG VV002 02/02 A2978 RMK AO2 T00220022
  • 250519Z AUTO 17006KT 1/2SM R23/2600V3000FT FG VV002 02/02 A2978 RMK AO2 T00220022
  • 250453Z AUTO 19004KT 1/4SM R23/2000V2400FT FG VV002 02/02 A2978 RMK AO2 SLP092 T00220022 400330017
  • 250437Z AUTO 19004KT 1/4SM R23/2200V2400FT FG VV002 02/02 A2978 RMK AO2 T00220022

TAF KBTL
Valid from the 25 at 06:00 until the 26 at 06:00 UTC


250542Z 2506/2606 20003KT 1/2SM FG VV003
TEMPO 2506/2509 1/4SM FG VV002
FM251100 19004KT 2SM BR VCSH OVC004
FM252300 26004KT 1SM -SHSN BR OVC003



MET'MAP, your aeronautical weather chart ! - Copyright ORBIFLY December 2007 - Disclaimer

ORBIFLY MET'MAP TEAM :

Programming & Development : Alexandra Zaïnal
Concept & original design : Baudouin d'Aumeries
Assistance for programming : Marc-Olivier Méhu
Technical & hardware support : Manuel Goepfert

Contact : metmap@orbifly.com




SOURCES & CREDITS :

   NOAA       Earth
Advisory